Time;durP1;ratioP1;P1;durP2;ratioP2;P2;SDS_P1;SDS_P2;PMS_P1;PMS_P2;Temp;Humidity;BMP_temperature;BMP_pressure;BME280_temperature;BME280_humidity;BME280_pressure;Samples;Min_cycle;Max_cycle;Signal;HPM_P1;HPM_P2
2022/06/01 00:01:21;;;;;;;2.30;2.10;;;14.50;96.80;;;;;;5050903;28;20392;-42
2022/06/01 00:03:48;;;;;;;3.40;2.38;;;14.50;96.80;;;;;;5051278;28;20039;-41
2022/06/01 00:06:14;;;;;;;3.08;2.05;;;14.40;97.00;;;;;;5051379;28;20497;-42
2022/06/01 00:08:40;;;;;;;6.32;2.22;;;14.40;97.40;;;;;;5050880;28;20029;-43
2022/06/01 00:11:06;;;;;;;3.05;2.17;;;14.40;97.40;;;;;;5051419;28;20013;-43
2022/06/01 00:13:32;;;;;;;4.28;2.10;;;14.40;97.60;;;;;;5051297;28;20039;-42
2022/06/01 00:15:58;;;;;;;4.45;2.08;;;14.40;97.60;;;;;;5050864;28;20051;-45
2022/06/01 00:18:24;;;;;;;4.38;2.00;;;14.40;97.70;;;;;;5050807;28;20029;-43
2022/06/01 00:20:53;;;;;;;5.45;2.20;;;14.30;97.60;;;;;;5051070;28;20017;-41
2022/06/01 00:23:19;;;;;;;2.47;2.00;;;14.30;97.60;;;;;;5051092;28;20378;-42
2022/06/01 00:25:46;;;;;;;2.25;2.08;;;14.20;97.70;;;;;;5050832;28;20068;-44
2022/06/01 00:28:12;;;;;;;2.60;2.40;;;14.20;98.00;;;;;;5049331;28;20024;-41
2022/06/01 00:30:37;;;;;;;4.60;2.38;;;14.10;98.10;;;;;;5049647;28;20029;-41
2022/06/01 00:33:03;;;;;;;2.72;1.92;;;14.10;98.50;;;;;;5050684;28;20048;-42
2022/06/01 00:35:29;;;;;;;2.38;2.17;;;14.10;98.40;;;;;;5050201;28;20021;-42
2022/06/01 00:37:55;;;;;;;4.00;2.20;;;14.00;98.70;;;;;;5050512;28;20035;-42
2022/06/01 00:40:23;;;;;;;55.72;29.98;;;14.00;98.80;;;;;;5051161;28;20551;-42
2022/06/01 00:42:52;;;;;;;28.17;17.10;;;14.00;99.00;;;;;;5051640;28;20104;-40
2022/06/01 00:45:21;;;;;;;5.30;3.95;;;13.90;99.10;;;;;;5054498;28;20488;-42
2022/06/01 00:47:47;;;;;;;3.53;2.90;;;13.90;99.60;;;;;;5054214;28;20036;-42
2022/06/01 00:50:30;;;;;;;3.42;2.58;;;13.80;99.30;;;;;;5054305;28;20075;-42
2022/06/01 00:53:17;;;;;;;3.13;2.67;;;13.80;99.60;;;;;;5054357;28;20025;-42
2022/06/01 00:55:46;;;;;;;3.13;2.85;;;13.90;99.60;;;;;;5054346;28;20017;-42
2022/06/01 00:58:39;;;;;;;3.35;2.97;;;13.90;99.40;;;;;;5052715;28;20025;-42
2022/06/01 01:01:08;;;;;;;6.30;2.70;;;13.90;99.30;;;;;;5049440;28;20029;-41
2022/06/01 01:03:36;;;;;;;2.63;2.42;;;13.90;99.40;;;;;;5054066;28;20021;-41
2022/06/01 01:06:15;;;;;;;3.50;3.15;;;13.90;99.40;;;;;;5054187;28;20485;-41
2022/06/01 01:08:43;;;;;;;3.33;2.50;;;13.90;99.60;;;;;;5053778;28;20048;-42
2022/06/01 01:11:10;;;;;;;4.57;3.35;;;13.90;99.50;;;;;;5054003;28;20036;-43
2022/06/01 01:13:37;;;;;;;4.43;3.10;;;13.90;98.90;;;;;;5053845;28;20025;-41
2022/06/01 01:16:04;;;;;;;5.63;3.30;;;13.80;99.00;;;;;;5053921;28;20029;-41
2022/06/01 01:18:38;;;;;;;4.93;2.83;;;13.70;99.10;;;;;;5053881;28;20078;-40
2022/06/01 01:21:35;;;;;;;3.13;2.85;;;13.70;99.50;;;;;;5054072;28;20021;-42
2022/06/01 01:24:26;;;;;;;5.90;3.17;;;13.60;99.80;;;;;;5053882;28;20493;-44
2022/06/01 01:26:52;;;;;;;3.70;3.10;;;13.60;99.70;;;;;;5053370;28;20025;-40
2022/06/01 01:29:42;;;;;;;3.55;2.97;;;13.50;99.50;;;;;;5053690;28;20039;-42
2022/06/01 01:32:11;;;;;;;3.40;2.92;;;13.50;99.80;;;;;;5053168;28;20033;-46
2022/06/01 01:34:37;;;;;;;2.88;2.65;;;13.50;99.90;;;;;;5053599;28;20021;-46
2022/06/01 01:37:08;;;;;;;3.13;2.83;;;13.50;99.60;;;;;;5053290;28;20036;-42
2022/06/01 01:39:36;;;;;;;7.85;3.17;;;13.50;99.90;;;;;;5053618;28;20528;-43
2022/06/01 01:42:03;;;;;;;5.13;3.42;;;13.60;99.90;;;;;;5053319;28;20051;-42
2022/06/01 01:44:55;;;;;;;3.08;2.70;;;13.60;99.90;;;;;;5053245;28;20029;-42
2022/06/01 01:47:21;;;;;;;5.13;3.25;;;13.60;99.90;;;;;;5053139;28;20119;-44
2022/06/01 01:49:47;;;;;;;2.42;2.22;;;13.60;99.90;;;;;;5053318;28;20021;-42
2022/06/01 01:52:15;;;;;;;5.65;2.95;;;13.60;99.90;;;;;;5053254;28;20035;-42
2022/06/01 01:54:52;;;;;;;4.18;3.08;;;13.60;99.90;;;;;;5052144;28;20032;-43
2022/06/01 01:57:50;;;;;;;8.65;3.35;;;13.70;99.90;;;;;;5051543;28;20028;-42
2022/06/01 02:00:26;;;;;;;8.23;3.30;;;13.70;99.90;;;;;;5053159;28;20021;-42
2022/06/01 02:03:08;;;;;;;2.92;2.53;;;13.70;99.90;;;;;;5052947;28;20128;-45
2022/06/01 02:06:04;;;;;;;4.60;3.45;;;13.60;99.90;;;;;;5051928;28;20025;-44
2022/06/01 02:08:46;;;;;;;5.72;3.22;;;13.60;99.90;;;;;;5052611;28;20017;-42
2022/06/01 02:14:30;;;;;;;4.82;3.38;;;13.50;99.90;;;;;;5052873;28;20275;-44
2022/06/01 02:17:04;;;;;;;4.13;3.20;;;13.50;99.90;;;;;;5052295;28;20025;-43
2022/06/01 02:19:36;;;;;;;6.32;3.25;;;13.40;99.90;;;;;;5052965;28;20029;-42
2022/06/01 02:22:03;;;;;;;3.63;3.30;;;13.30;99.90;;;;;;5052745;28;20056;-42
2022/06/01 02:24:30;;;;;;;3.97;3.25;;;13.30;99.90;;;;;;5052868;28;20489;-42
2022/06/01 02:26:56;;;;;;;4.40;3.17;;;13.30;99.90;;;;;;5052247;28;20059;-43
2022/06/01 02:29:30;;;;;;;3.78;3.25;;;13.20;99.90;;;;;;5052576;28;20032;-42
2022/06/01 02:31:57;;;;;;;6.38;3.13;;;13.20;99.90;;;;;;5052737;28;20025;-42
2022/06/01 02:34:23;;;;;;;3.92;3.10;;;13.10;99.90;;;;;;5053947;28;20029;-42
2022/06/01 02:36:50;;;;;;;10.75;3.83;;;13.10;99.90;;;;;;5053079;28;20084;-43
2022/06/01 02:39:16;;;;;;;5.13;3.38;;;13.10;99.90;;;;;;5053086;28;20025;-42
2022/06/01 02:44:26;;;;;;;4.63;3.47;;;13.20;99.90;;;;;;5053757;28;20512;-42
2022/06/01 02:46:52;;;;;;;6.20;3.97;;;13.20;99.90;;;;;;5052208;28;20028;-41
2022/06/01 02:49:17;;;;;;;4.53;4.13;;;13.30;99.90;;;;;;5052179;28;20515;-41
2022/06/01 02:51:49;;;;;;;4.10;3.75;;;13.20;99.90;;;;;;5052173;28;20389;-42
2022/06/01 02:54:15;;;;;;;22.20;4.47;;;13.10;99.90;;;;;;5052257;28;20021;-42
2022/06/01 02:56:40;;;;;;;4.00;3.67;;;13.00;99.90;;;;;;5051922;28;20036;-41
2022/06/01 02:59:06;;;;;;;7.00;4.13;;;12.90;99.90;;;;;;5051869;28;20029;-42
2022/06/01 03:01:33;;;;;;;4.05;3.75;;;12.90;99.90;;;;;;5052005;28;20032;-41
2022/06/01 03:03:58;;;;;;;5.40;4.32;;;12.90;99.90;;;;;;5051170;28;20554;-42
2022/06/01 03:06:24;;;;;;;4.03;3.55;;;12.80;99.90;;;;;;5053122;28;20036;-42
2022/06/01 03:08:49;;;;;;;3.97;3.53;;;12.80;99.90;;;;;;5052993;28;20032;-42
2022/06/01 03:11:15;;;;;;;6.47;3.47;;;12.80;99.90;;;;;;5053142;28;20029;-41
2022/06/01 03:13:41;;;;;;;5.95;4.25;;;12.70;99.90;;;;;;5052285;28;20485;-42
2022/06/01 03:16:07;;;;;;;4.00;3.45;;;12.60;99.90;;;;;;5053270;28;20108;-42
2022/06/01 03:18:32;;;;;;;3.97;3.65;;;12.50;99.90;;;;;;5052441;28;20060;-42
2022/06/01 03:20:58;;;;;;;7.05;3.78;;;12.50;99.90;;;;;;5051830;28;20021;-41
2022/06/01 03:23:25;;;;;;;5.00;3.40;;;12.40;99.90;;;;;;5051575;28;20036;-42
2022/06/01 03:25:51;;;;;;;3.35;3.15;;;12.30;99.90;;;;;;5051586;28;20074;-43
2022/06/01 03:28:16;;;;;;;4.47;3.60;;;12.30;99.90;;;;;;5051093;28;20396;-40
2022/06/01 03:30:43;;;;;;;7.95;3.92;;;12.30;99.90;;;;;;5051620;28;20028;-41
2022/06/01 03:33:10;;;;;;;4.70;3.67;;;12.30;99.90;;;;;;5051117;28;20048;-42
2022/06/01 03:35:37;;;;;;;6.40;3.72;;;12.30;99.90;;;;;;5051415;28;20017;-38
2022/06/01 03:38:02;;;;;;;4.95;3.58;;;12.30;99.90;;;;;;5051143;28;20032;-40
2022/06/01 03:40:31;;;;;;;8.00;3.63;;;12.30;99.90;;;;;;5051553;28;20029;-40
2022/06/01 03:42:57;;;;;;;5.22;3.28;;;12.30;99.90;;;;;;5051383;28;20074;-40
2022/06/01 03:48:08;;;;;;;3.40;3.10;;;12.50;99.90;;;;;;5051230;28;20156;-40
2022/06/01 03:50:35;;;;;;;4.28;3.33;;;12.40;99.90;;;;;;5051377;28;20053;-40
2022/06/01 03:53:02;;;;;;;3.95;3.15;;;12.40;99.90;;;;;;5051171;28;20503;-40
2022/06/01 03:55:28;;;;;;;3.70;3.25;;;12.40;99.90;;;;;;5051233;28;20396;-39
2022/06/01 03:57:54;;;;;;;4.53;3.20;;;12.40;99.90;;;;;;5051306;28;20028;-40
2022/06/01 04:00:24;;;;;;;4.57;3.80;;;12.40;99.90;;;;;;5051499;28;20040;-41
2022/06/01 04:02:50;;;;;;;7.07;3.90;;;12.40;99.90;;;;;;5051301;28;20112;-40
2022/06/01 04:05:16;;;;;;;3.90;3.50;;;12.40;99.90;;;;;;5053782;28;20029;-42
2022/06/01 04:07:41;;;;;;;6.20;3.33;;;12.50;99.90;;;;;;5049625;28;20047;-42
2022/06/01 04:10:08;;;;;;;5.90;3.50;;;12.60;99.90;;;;;;5051288;28;20036;-44
2022/06/01 04:12:34;;;;;;;3.33;3.03;;;12.70;99.90;;;;;;5039937;28;20018;-42
2022/06/01 04:14:59;;;;;;;3.95;3.28;;;12.70;99.90;;;;;;5051251;28;20074;-42
2022/06/01 04:17:25;;;;;;;4.78;4.25;;;12.80;99.90;;;;;;5075692;22;20025;-43
2022/06/01 04:19:50;;;;;;;6.93;3.90;;;13.00;99.90;;;;;;5053555;28;20029;-43
2022/06/01 04:22:16;;;;;;;6.55;4.63;;;13.20;99.90;;;;;;5050688;28;20029;-45
2022/06/01 04:24:42;;;;;;;4.75;3.53;;;13.40;99.90;;;;;;5034913;28;20396;-45
2022/06/01 04:27:08;;;;;;;4.15;3.53;;;13.30;99.90;;;;;;5038751;28;20489;-49
2022/06/01 04:29:34;;;;;;;3.95;3.03;;;13.30;99.90;;;;;;5045152;28;20021;-42
2022/06/01 04:32:06;;;;;;;6.60;3.17;;;13.40;99.90;;;;;;5054640;28;20405;-48
2022/06/01 04:34:32;;;;;;;5.35;2.97;;;13.50;99.90;;;;;;5052343;28;20029;-46
2022/06/01 04:36:57;;;;;;;3.65;2.78;;;13.50;99.90;;;;;;5034385;28;20022;-46
2022/06/01 04:39:23;;;;;;;6.78;3.05;;;13.40;99.90;;;;;;5034530;28;20033;-46
2022/06/01 04:41:50;;;;;;;10.20;3.67;;;13.50;99.90;;;;;;5034531;28;20037;-44
2022/06/01 04:44:16;;;;;;;4.40;3.25;;;13.60;99.90;;;;;;5034404;28;20022;-40
2022/06/01 04:46:41;;;;;;;9.70;3.53;;;13.80;99.90;;;;;;5036379;28;20037;-44
2022/06/01 04:49:07;;;;;;;3.88;3.47;;;14.00;99.90;;;;;;5054030;28;20033;-46
2022/06/01 04:51:33;;;;;;;4.55;3.33;;;14.30;99.90;;;;;;5054320;28;20021;-48
2022/06/01 04:53:59;;;;;;;3.78;3.05;;;14.80;99.90;;;;;;5054227;28;20056;-47
2022/06/01 04:56:24;;;;;;;3.28;3.05;;;15.40;99.90;;;;;;5054286;28;20040;-44
2022/06/01 04:58:50;;;;;;;7.15;3.72;;;16.40;98.10;;;;;;5053693;28;20029;-41
2022/06/01 05:01:15;;;;;;;8.68;4.28;;;17.50;96.20;;;;;;5054093;28;20029;-49
2022/06/01 05:03:41;;;;;;;3.80;3.25;;;18.40;93.90;;;;;;5054083;28;20396;-46
2022/06/01 05:06:06;;;;;;;4.45;2.83;;;19.10;92.50;;;;;;5054033;28;20108;-38
2022/06/01 05:08:32;;;;;;;4.85;3.15;;;19.90;91.60;;;;;;5053670;28;20029;-46
2022/06/01 05:10:57;;;;;;;3.92;3.20;;;20.60;89.70;;;;;;5053861;28;20051;-48
2022/06/01 05:13:23;;;;;;;2.65;2.45;;;21.20;87.20;;;;;;5053688;28;20150;-50
2022/06/01 05:15:51;;;;;;;2.70;2.45;;;21.70;85.20;;;;;;5053897;28;20029;-45
2022/06/01 05:18:17;;;;;;;2.42;2.22;;;22.50;83.30;;;;;;5053406;28;20472;-43
2022/06/01 05:20:44;;;;;;;3.83;2.85;;;22.90;82.10;;;;;;5053647;28;20029;-45
2022/06/01 05:23:09;;;;;;;2.80;2.60;;;23.30;79.70;;;;;;5052140;28;20052;-48
2022/06/01 05:25:35;;;;;;;13.98;3.15;;;23.80;77.90;;;;;;5033690;28;20025;-46
2022/06/01 05:28:01;;;;;;;2.67;2.47;;;23.80;76.80;;;;;;5033317;28;20021;-41
2022/06/01 05:30:27;;;;;;;3.20;2.90;;;24.00;75.60;;;;;;5033529;28;20052;-44
2022/06/01 05:32:52;;;;;;;4.05;3.30;;;24.20;74.70;;;;;;5032845;28;20021;-44
2022/06/01 05:35:18;;;;;;;5.88;3.03;;;24.00;75.20;;;;;;5033984;28;20021;-46
2022/06/01 05:37:43;;;;;;;3.53;2.95;;;24.00;75.60;;;;;;5034683;28;20021;-41
2022/06/01 05:40:09;;;;;;;4.55;2.42;;;24.50;73.60;;;;;;5052134;28;20028;-47
2022/06/01 05:42:35;;;;;;;4.03;2.67;;;24.60;73.80;;;;;;5053185;28;20406;-48
2022/06/01 05:45:00;;;;;;;3.45;2.20;;;25.00;73.30;;;;;;5053208;28;20396;-45
2022/06/01 05:47:26;;;;;;;3.20;2.40;;;25.60;72.30;;;;;;5045943;28;20037;-40
2022/06/01 05:49:52;;;;;;;4.60;2.88;;;26.40;70.30;;;;;;5051778;28;20021;-45
2022/06/01 05:52:18;;;;;;;4.85;2.45;;;26.70;68.30;;;;;;5053127;28;20021;-45
2022/06/01 05:54:47;;;;;;;3.13;2.55;;;26.70;68.00;;;;;;5051974;28;20100;-41
2022/06/01 05:57:13;;;;;;;3.22;2.55;;;26.90;67.30;;;;;;5052655;28;20096;-43
2022/06/01 05:59:38;;;;;;;5.03;2.80;;;27.00;67.30;;;;;;5053083;28;20044;-46
2022/06/01 06:02:04;;;;;;;5.32;2.80;;;27.30;66.50;;;;;;5036701;28;20030;-39
2022/06/01 06:04:30;;;;;;;2.47;2.35;;;27.50;66.00;;;;;;5038274;28;20481;-45
2022/06/01 06:06:56;;;;;;;3.17;2.50;;;27.30;65.30;;;;;;5046761;28;20115;-45
2022/06/01 06:09:24;;;;;;;2.28;2.17;;;27.60;64.20;;;;;;5039565;28;20067;-44
2022/06/01 06:11:51;;;;;;;3.30;2.47;;;27.50;64.80;;;;;;5050966;28;20021;-46
2022/06/01 06:14:18;;;;;;;4.07;2.38;;;27.50;64.00;;;;;;5042022;28;20025;-45
2022/06/01 06:16:45;;;;;;;3.67;2.45;;;27.70;64.10;;;;;;5040699;28;20029;-41
2022/06/01 06:19:11;;;;;;;5.55;2.15;;;28.20;64.00;;;;;;5052450;28;20412;-46
2022/06/01 06:21:37;;;;;;;6.60;2.70;;;28.80;63.00;;;;;;5033211;28;20055;-46
2022/06/01 06:24:08;;;;;;;2.67;2.47;;;28.90;62.80;;;;;;5040411;28;20536;-50
2022/06/01 06:26:35;;;;;;;2.63;2.42;;;28.70;61.40;;;;;;5051657;28;20409;-44
2022/06/01 06:29:03;;;;;;;3.53;2.20;;;28.40;62.50;;;;;;5047079;28;20029;-42
2022/06/01 06:31:29;;;;;;;4.00;3.00;;;28.50;62.60;;;;;;5047261;28;20350;-47
2022/06/01 06:33:55;;;;;;;3.08;2.15;;;28.20;62.20;;;;;;5052342;28;20053;-44
2022/06/01 06:36:22;;;;;;;2.50;2.30;;;27.60;62.70;;;;;;5052470;28;20052;-46
2022/06/01 06:38:47;;;;;;;3.35;2.28;;;27.40;63.50;;;;;;5052393;28;20025;-44
2022/06/01 06:41:13;;;;;;;3.58;2.17;;;27.50;63.80;;;;;;5052713;28;20032;-44
2022/06/01 06:43:40;;;;;;;4.72;2.00;;;26.90;63.70;;;;;;5052834;28;20127;-45
2022/06/01 06:46:12;;;;;;;6.00;2.35;;;28.00;63.20;;;;;;5052652;28;20514;-46
2022/06/01 06:48:38;;;;;;;6.25;2.88;;;28.50;62.60;;;;;;5052050;28;20037;-40
2022/06/01 06:51:04;;;;;;;4.47;2.40;;;28.10;61.90;;;;;;5052606;28;20032;-49
2022/06/01 06:53:29;;;;;;;4.10;2.38;;;28.40;61.10;;;;;;5052368;28;20024;-45
2022/06/01 06:55:56;;;;;;;8.15;2.45;;;28.70;60.30;;;;;;5050601;28;20025;-47
2022/06/01 06:58:22;;;;;;;3.28;2.28;;;29.50;60.60;;;;;;5043467;28;20028;-48
2022/06/01 07:00:48;;;;;;;8.65;3.45;;;30.20;58.90;;;;;;5039348;28;20404;-51
2022/06/01 07:03:14;;;;;;;4.13;2.20;;;30.30;58.70;;;;;;5052218;28;20666;-46
2022/06/01 07:08:26;;;;;;;2.13;1.92;;;30.10;58.30;;;;;;5049686;28;20081;-51
2022/06/01 07:10:52;;;;;;;6.78;2.20;;;29.90;57.40;;;;;;5042760;28;20031;-46
2022/06/01 07:13:18;;;;;;;2.10;1.95;;;29.90;57.80;;;;;;5051281;28;20025;-51
2022/06/01 07:15:43;;;;;;;4.03;2.10;;;30.10;57.20;;;;;;5050310;28;20027;-51
2022/06/01 07:18:09;;;;;;;4.15;2.35;;;29.40;57.50;;;;;;5045653;28;20040;-50
2022/06/01 07:20:35;;;;;;;4.57;1.80;;;29.10;57.70;;;;;;5040895;28;20028;-44
2022/06/01 07:23:01;;;;;;;4.22;2.10;;;29.50;56.90;;;;;;5047062;28;20029;-50
2022/06/01 07:25:28;;;;;;;2.20;1.55;;;30.30;56.50;;;;;;5047441;28;20036;-48
2022/06/01 07:27:54;;;;;;;6.32;1.50;;;30.80;55.30;;;;;;5037964;28;20028;-46
2022/06/01 07:30:20;;;;;;;3.88;1.60;;;31.50;54.80;;;;;;5049549;28;20029;-47
2022/06/01 07:32:49;;;;;;;3.65;1.77;;;31.60;54.50;;;;;;5047589;28;20052;-48
2022/06/01 07:35:16;;;;;;;2.08;1.88;;;31.20;54.90;;;;;;5051554;28;20028;-56
2022/06/01 07:43:12;;;;;;;4.43;1.65;;;30.20;55.70;;;;;;5040028;28;20040;-48
2022/06/01 07:45:41;;;;;;;1.73;1.45;;;30.30;55.70;;;;;;5051544;28;20033;-53
2022/06/01 07:48:07;;;;;;;1.15;1.00;;;30.70;54.10;;;;;;5044255;28;20084;-45
2022/06/01 07:50:34;;;;;;;4.72;1.42;;;31.10;53.80;;;;;;5050897;28;20072;-46
2022/06/01 07:53:01;;;;;;;2.85;1.50;;;31.50;53.50;;;;;;5052229;28;20024;-42
2022/06/01 07:55:28;;;;;;;4.70;1.60;;;32.00;52.70;;;;;;5055649;28;20055;-46
2022/06/01 07:57:53;;;;;;;1.73;1.23;;;32.50;51.30;;;;;;5055155;28;20465;-48
2022/06/01 08:00:19;;;;;;;4.20;1.13;;;32.60;51.10;;;;;;5054782;28;20040;-51
2022/06/01 08:02:45;;;;;;;1.33;1.23;;;32.80;51.50;;;;;;5055492;28;20512;-50
2022/06/01 08:05:16;;;;;;;4.80;1.42;;;32.60;51.40;;;;;;5055402;28;20036;-48
2022/06/01 08:07:42;;;;;;;4.38;1.48;;;32.60;50.20;;;;;;5055214;28;20027;-51
2022/06/01 08:10:09;;;;;;;3.85;1.35;;;32.00;50.20;;;;;;5055149;28;20029;-47
2022/06/01 08:13:20;;;;;;;1.40;0.80;;;31.30;50.40;;;;;;5055092;28;20488;-45
2022/06/01 08:15:21;;;;;;;1.20;0.90;;;30.90;50.50;;;;;;5047890;28;20040;-46
2022/06/01 08:17:47;;;;;;;4.00;1.00;;;31.00;50.40;;;;;;5053516;28;20116;-46
2022/06/01 08:20:14;;;;;;;1.95;1.23;;;30.90;50.60;;;;;;5054804;28;20108;-48
2022/06/01 08:22:41;;;;;;;4.22;1.20;;;30.50;51.70;;;;;;5054943;28;20083;-45
2022/06/01 08:25:08;;;;;;;3.72;0.93;;;30.30;51.60;;;;;;5055008;28;20064;-47
2022/06/01 08:27:34;;;;;;;3.05;1.17;;;29.70;52.50;;;;;;5054516;28;20029;-49
2022/06/01 08:29:59;;;;;;;2.05;0.88;;;28.70;53.40;;;;;;5054805;28;20033;-45
2022/06/01 08:32:25;;;;;;;3.58;1.20;;;28.00;54.50;;;;;;5054884;28;20073;-47
2022/06/01 08:34:51;;;;;;;4.55;0.95;;;27.50;56.30;;;;;;5054647;28;20029;-49
2022/06/01 08:37:17;;;;;;;1.83;1.30;;;27.00;56.40;;;;;;5053351;28;20017;-51
2022/06/01 08:39:43;;;;;;;1.48;1.38;;;26.50;56.10;;;;;;5054751;28;20084;-45
2022/06/01 08:42:13;;;;;;;1.33;0.88;;;26.40;57.60;;;;;;5054610;28;20039;-48
2022/06/01 08:44:41;;;;;;;5.80;1.10;;;26.30;57.10;;;;;;5054597;28;20021;-47
2022/06/01 08:47:34;;;;;;;1.75;1.17;;;26.00;57.50;;;;;;5053151;28;20503;-44
2022/06/01 08:50:04;;;;;;;3.60;1.02;;;25.80;57.60;;;;;;5051271;28;20130;-45
2022/06/01 08:52:29;;;;;;;3.05;1.10;;;25.50;58.10;;;;;;5054454;28;20492;-49
2022/06/01 08:54:55;;;;;;;4.63;1.02;;;25.40;58.20;;;;;;5054585;28;20032;-46
2022/06/01 08:57:55;;;;;;;1.17;0.80;;;25.30;57.70;;;;;;5054427;28;20021;-44
2022/06/01 09:00:21;;;;;;;0.98;0.90;;;24.80;57.80;;;;;;5049367;28;20043;-48
2022/06/01 09:03:12;;;;;;;1.58;0.98;;;24.40;57.80;;;;;;5054569;28;20025;-45
2022/06/01 09:05:47;;;;;;;0.75;0.68;;;24.30;58.90;;;;;;5054121;28;20025;-46
2022/06/01 09:08:18;;;;;;;1.88;1.05;;;24.40;58.30;;;;;;5052879;28;20025;-46
2022/06/01 09:10:50;;;;;;;1.45;0.80;;;24.60;59.20;;;;;;5054409;28;20059;-42
2022/06/01 09:13:26;;;;;;;3.13;1.05;;;25.00;58.00;;;;;;5054487;28;20039;-50
2022/06/01 09:16:02;;;;;;;7.07;3.58;;;25.10;57.40;;;;;;5054305;28;20017;-45
2022/06/01 09:18:42;;;;;;;17.90;13.23;;;25.40;57.20;;;;;;5053719;28;20029;-45
2022/06/01 09:24:08;;;;;;;1.35;0.57;;;25.40;55.90;;;;;;5054229;28;20032;-45
2022/06/01 09:26:34;;;;;;;0.73;0.55;;;25.30;56.10;;;;;;5053808;28;20023;-45
2022/06/01 09:29:02;;;;;;;2.85;0.80;;;25.30;55.80;;;;;;5053663;28;20505;-47
2022/06/01 09:31:41;;;;;;;3.65;1.05;;;24.40;55.10;;;;;;5053798;28;20017;-46
2022/06/01 09:34:32;;;;;;;0.60;0.60;;;24.60;56.80;;;;;;5052544;28;20028;-49
2022/06/01 09:37:04;;;;;;;3.70;0.80;;;24.70;57.20;;;;;;5053388;28;20496;-45
2022/06/01 09:39:31;;;;;;;6.63;0.77;;;24.50;56.70;;;;;;5053706;28;20103;-46
2022/06/01 09:42:15;;;;;;;0.60;0.60;;;24.20;57.80;;;;;;5053610;28;20044;-46
2022/06/01 09:44:48;;;;;;;3.53;0.73;;;23.80;58.40;;;;;;5053616;28;20104;-49
2022/06/01 09:47:31;;;;;;;1.23;0.77;;;23.70;58.60;;;;;;5053142;28;20036;-47
2022/06/01 09:49:59;;;;;;;3.08;0.75;;;23.10;59.50;;;;;;5052217;28;20020;-44
2022/06/01 09:52:32;;;;;;;1.58;0.85;;;22.80;59.80;;;;;;5053523;28;20028;-47
2022/06/01 09:55:10;;;;;;;5.95;0.90;;;22.40;61.30;;;;;;5053636;28;20104;-45
2022/06/01 09:57:38;;;;;;;2.85;1.27;;;22.70;61.60;;;;;;5053247;28;20484;-45
2022/06/01 10:06:07;;;;;;;1.27;0.77;;;23.50;60.60;;;;;;5051596;28;20112;-52
2022/06/01 10:08:35;;;;;;;1.98;1.00;;;23.70;59.30;;;;;;5051649;28;20405;-49
2022/06/01 10:11:19;;;;;;;3.53;2.25;;;23.50;59.80;;;;;;5051558;28;20099;-52
2022/06/01 10:13:53;;;;;;;2.33;1.10;;;23.50;59.80;;;;;;5053011;28;20041;-52
2022/06/01 10:16:56;;;;;;;0.90;0.60;;;23.50;59.40;;;;;;5052192;28;20021;-49
2022/06/01 10:19:33;;;;;;;2.53;0.68;;;23.20;60.50;;;;;;5055178;22;20121;-42
2022/06/01 10:22:01;;;;;;;1.75;0.68;;;23.20;60.20;;;;;;5031431;28;20029;-40
2022/06/01 10:24:33;;;;;;;2.40;0.90;;;23.10;59.20;;;;;;5035723;28;20488;-44
2022/06/01 10:27:00;;;;;;;2.92;1.40;;;22.90;59.70;;;;;;5052017;28;20033;-45
2022/06/01 10:29:48;;;;;;;3.13;0.80;;;22.70;59.30;;;;;;5031761;28;20033;-45
2022/06/01 10:32:36;;;;;;;7.47;0.80;;;22.50;60.40;;;;;;5012780;28;20045;-45
2022/06/01 10:35:14;;;;;;;2.72;0.57;;;22.40;60.80;;;;;;5030097;28;20056;-42
2022/06/01 10:38:06;;;;;;;3.22;0.75;;;22.30;60.30;;;;;;5028093;28;20497;-41
2022/06/01 10:40:36;;;;;;;3.67;0.80;;;22.30;60.60;;;;;;5032555;28;20036;-47
2022/06/01 10:43:28;;;;;;;1.83;0.98;;;22.30;60.40;;;;;;5028713;28;20018;-42
2022/06/01 10:46:21;;;;;;;4.60;0.80;;;22.40;60.80;;;;;;5007224;28;20070;-42
2022/06/01 10:48:55;;;;;;;1.65;0.85;;;22.50;61.70;;;;;;5020699;28;20029;-42
2022/06/01 10:51:27;;;;;;;1.70;0.70;;;22.50;61.10;;;;;;5033629;28;20022;-44
2022/06/01 10:54:08;;;;;;;5.65;4.50;;;22.50;60.20;;;;;;5015962;28;20026;-45
2022/06/01 10:56:34;;;;;;;10.07;4.88;;;22.40;61.10;;;;;;5014941;28;20036;-44
2022/06/01 10:59:08;;;;;;;5.00;1.40;;;22.20;60.40;;;;;;5014011;28;20042;-44
2022/06/01 11:01:36;;;;;;;1.77;0.82;;;22.10;61.30;;;;;;5013364;28;20030;-44
2022/06/01 11:04:33;;;;;;;2.47;0.90;;;22.10;61.70;;;;;;5019846;28;20048;-44
2022/06/01 11:07:32;;;;;;;1.45;0.93;;;22.10;62.70;;;;;;5031720;28;20109;-44
2022/06/01 11:10:08;;;;;;;2.05;0.75;;;22.10;61.60;;;;;;5029358;28;20544;-45
2022/06/01 11:12:40;;;;;;;1.17;0.55;;;22.10;61.70;;;;;;5017727;28;20116;-45
2022/06/01 11:15:29;;;;;;;5.18;0.90;;;22.20;62.70;;;;;;5031593;28;20683;-46
2022/06/01 11:18:02;;;;;;;5.68;0.90;;;22.40;62.50;;;;;;5031490;28;20032;-44
2022/06/01 11:21:07;;;;;;;3.90;1.10;;;22.40;60.60;;;;;;5031132;28;20438;-46
2022/06/01 11:23:44;;;;;;;2.42;0.82;;;22.40;61.40;;;;;;5030301;28;20026;-44
2022/06/01 11:26:59;;;;;;;2.65;0.65;;;22.40;61.30;;;;;;5012090;28;20525;-42
2022/06/01 11:30:04;;;;;;;1.45;0.77;;;22.40;61.00;;;;;;4994619;28;20407;-49
2022/06/01 11:32:41;;;;;;;2.58;0.93;;;22.30;61.50;;;;;;5009074;28;20034;-42
2022/06/01 11:35:29;;;;;;;7.20;1.02;;;22.40;61.10;;;;;;5029142;28;20541;-44
2022/06/01 11:38:09;;;;;;;3.38;0.82;;;22.50;61.60;;;;;;5029127;28;20076;-44
2022/06/01 11:40:48;;;;;;;4.30;0.90;;;22.40;61.60;;;;;;5031090;28;20116;-45
2022/06/01 11:43:30;;;;;;;0.40;0.40;;;22.30;61.60;;;;;;5029906;28;20037;-45
2022/06/01 11:46:02;;;;;;;5.95;1.90;;;22.50;61.40;;;;;;5030494;28;20037;-43
2022/06/01 11:48:36;;;;;;;2.45;0.93;;;22.50;61.50;;;;;;5031406;28;20033;-45
2022/06/01 11:51:13;;;;;;;1.30;0.60;;;22.60;61.90;;;;;;5031645;28;20083;-42
2022/06/01 11:53:41;;;;;;;1.75;0.57;;;22.80;60.20;;;;;;5031772;28;20520;-43
2022/06/01 11:56:22;;;;;;;3.95;1.30;;;22.80;59.40;;;;;;5012277;28;20060;-42
2022/06/01 11:59:20;;;;;;;5.72;1.00;;;22.70;61.60;;;;;;5021305;28;20345;-47
2022/06/01 12:02:00;;;;;;;0.55;0.55;;;22.70;61.00;;;;;;5029452;28;20061;-47
2022/06/01 12:04:49;;;;;;;1.30;0.77;;;22.60;59.90;;;;;;5030786;28;20081;-43
2022/06/01 12:07:21;;;;;;;1.63;0.68;;;22.70;60.40;;;;;;5030714;28;20026;-47
2022/06/01 12:10:19;;;;;;;0.70;0.57;;;22.80;61.00;;;;;;5028898;28;20037;-46
2022/06/01 12:12:56;;;;;;;1.10;0.90;;;22.80;58.80;;;;;;5011320;28;20148;-45
2022/06/01 12:15:38;;;;;;;3.20;0.80;;;22.90;58.80;;;;;;5014612;28;20532;-42
2022/06/01 12:18:14;;;;;;;0.60;0.60;;;23.00;59.00;;;;;;5020832;28;20468;-44
2022/06/01 12:20:39;;;;;;;2.50;0.55;;;23.10;57.50;;;;;;5031206;28;20033;-43
2022/06/01 12:29:15;;;;;;;1.10;0.60;;;22.90;59.10;;;;;;5023163;28;20049;-42
2022/06/01 12:32:03;;;;;;;3.20;0.60;;;22.80;60.00;;;;;;5023844;28;20029;-41
2022/06/01 12:34:38;;;;;;;0.60;0.60;;;23.00;60.10;;;;;;5018361;28;20014;-42
2022/06/01 12:37:03;;;;;;;;;;;22.90;58.70;;;;;;5017016;28;20029;-45
2022/06/01 12:39:32;;;;;;;0.50;0.50;;;22.80;57.30;;;;;;5031363;28;20408;-42
2022/06/01 12:42:07;;;;;;;3.33;0.77;;;22.60;58.30;;;;;;5029749;28;20063;-42
2022/06/01 12:44:38;;;;;;;3.08;0.70;;;22.40;59.30;;;;;;5027559;28;20026;-44
2022/06/01 12:47:04;;;;;;;1.10;0.68;;;22.30;58.80;;;;;;5019004;28;20034;-45
2022/06/01 12:49:40;;;;;;;3.10;2.83;;;22.40;59.90;;;;;;5034468;28;20091;-44
2022/06/01 12:52:12;;;;;;;4.55;1.00;;;22.60;58.40;;;;;;5021910;28;20737;-44
2022/06/01 12:54:41;;;;;;;0.98;0.50;;;22.50;59.30;;;;;;5027069;28;20033;-49
2022/06/01 12:57:09;;;;;;;3.20;0.63;;;22.50;58.60;;;;;;5016606;28;20033;-42
2022/06/01 12:59:38;;;;;;;1.27;0.50;;;22.40;59.10;;;;;;5019911;28;20021;-45
2022/06/01 13:02:11;;;;;;;1.65;0.50;;;22.40;59.40;;;;;;5017022;28;20076;-47
2022/06/01 13:04:38;;;;;;;0.47;0.43;;;22.40;59.10;;;;;;5014151;28;20075;-52
2022/06/01 13:07:06;;;;;;;2.25;0.50;;;22.30;59.80;;;;;;5014036;28;20025;-44
2022/06/01 13:09:34;;;;;;;1.15;0.60;;;22.40;59.30;;;;;;5014904;28;20084;-46
2022/06/01 13:12:06;;;;;;;2.05;0.70;;;22.40;59.10;;;;;;5014568;28;20017;-49
2022/06/01 13:14:35;;;;;;;1.58;0.60;;;22.40;59.00;;;;;;5021298;28;20056;-52
2022/06/01 13:17:13;;;;;;;0.75;0.50;;;22.40;59.30;;;;;;5013258;28;20099;-50
2022/06/01 13:19:39;;;;;;;0.85;0.60;;;22.20;58.30;;;;;;5025583;28;20034;-50
2022/06/01 13:22:19;;;;;;;1.15;0.50;;;22.30;59.00;;;;;;5028051;28;20032;-48
2022/06/01 13:24:53;;;;;;;2.70;0.60;;;22.40;59.00;;;;;;5034051;28;20021;-49
2022/06/01 13:27:20;;;;;;;4.43;1.08;;;22.50;59.30;;;;;;5023416;28;20391;-51
2022/06/01 13:29:48;;;;;;;0.47;0.43;;;22.70;58.40;;;;;;5016422;28;20029;-45
2022/06/01 13:32:18;;;;;;;0.85;0.65;;;22.80;57.00;;;;;;5036024;28;20100;-52
2022/06/01 13:34:45;;;;;;;2.42;1.17;;;22.80;56.40;;;;;;5032655;28;20108;-56
2022/06/01 13:37:18;;;;;;;1.90;0.50;;;22.60;57.30;;;;;;5012869;28;20108;-57